Time;durP1;ratioP1;P1;durP2;ratioP2;P2;SDS_P1;SDS_P2;PMS_P1;PMS_P2;Temp;Humidity;BMP_temperature;BMP_pressure;BME280_temperature;BME280_humidity;BME280_pressure;Samples;Min_cycle;Max_cycle;Signal;HPM_P1;HPM_P2
2023/02/19 00:01:42;;;;;;;10.77;6.00;;;10.90;99.90;;;;;;5031305;28;20862;-67
2023/02/19 00:04:13;;;;;;;14.00;6.47;;;10.80;99.90;;;;;;5029335;28;20205;-61
2023/02/19 00:06:40;;;;;;;14.13;7.00;;;10.80;99.90;;;;;;5035751;28;20252;-59
2023/02/19 00:09:09;;;;;;;13.00;6.43;;;10.80;99.90;;;;;;5027849;28;20304;-59
2023/02/19 00:11:36;;;;;;;15.87;6.90;;;10.80;99.90;;;;;;5035725;28;20215;-59
2023/02/19 00:14:04;;;;;;;16.93;6.30;;;10.80;99.90;;;;;;5033655;28;20200;-60
2023/02/19 00:16:34;;;;;;;23.60;7.67;;;10.80;99.90;;;;;;5037106;28;20302;-60
2023/02/19 00:19:02;;;;;;;16.70;6.23;;;10.80;99.90;;;;;;5038349;28;20350;-62
2023/02/19 00:21:30;;;;;;;14.80;6.60;;;10.80;99.90;;;;;;5032689;28;20200;-59
2023/02/19 00:24:02;;;;;;;19.93;7.33;;;10.80;99.90;;;;;;5037362;28;20220;-59
2023/02/19 00:26:28;;;;;;;20.83;7.47;;;10.70;99.90;;;;;;5036968;28;20205;-60
2023/02/19 00:28:56;;;;;;;17.83;7.40;;;10.70;99.90;;;;;;5030491;28;20300;-60
2023/02/19 00:31:27;;;;;;;16.73;6.80;;;10.70;99.90;;;;;;5035667;28;20624;-59
2023/02/19 00:34:00;;;;;;;13.57;6.20;;;10.80;99.90;;;;;;5035328;28;20290;-60
2023/02/19 00:36:28;;;;;;;19.57;7.10;;;10.70;99.90;;;;;;5036327;28;20716;-60
2023/02/19 00:38:55;;;;;;;13.27;6.77;;;10.80;99.90;;;;;;5044061;28;20547;-60
2023/02/19 00:41:23;;;;;;;13.20;5.93;;;10.70;99.90;;;;;;5041489;28;20601;-59
2023/02/19 00:44:05;;;;;;;15.63;7.10;;;10.70;99.90;;;;;;5035087;28;20201;-59
2023/02/19 00:46:37;;;;;;;13.10;6.90;;;10.70;99.90;;;;;;5034132;28;20574;-61
2023/02/19 00:49:06;;;;;;;20.80;7.30;;;10.70;99.90;;;;;;5025506;28;20555;-59
2023/02/19 00:51:37;;;;;;;18.20;6.87;;;10.70;99.90;;;;;;5028164;28;20347;-60
2023/02/19 00:54:04;;;;;;;15.13;6.67;;;10.60;99.90;;;;;;5037003;28;20295;-60
2023/02/19 00:56:32;;;;;;;17.47;6.90;;;10.60;99.90;;;;;;5036587;28;20344;-61
2023/02/19 00:58:59;;;;;;;15.67;6.60;;;10.60;99.90;;;;;;5017983;28;20220;-59
2023/02/19 01:01:26;;;;;;;15.53;6.57;;;10.60;99.90;;;;;;5033839;28;20283;-60
2023/02/19 01:03:53;;;;;;;17.07;7.37;;;10.60;99.90;;;;;;5036179;28;20254;-60
2023/02/19 01:06:20;;;;;;;19.37;6.37;;;10.60;99.90;;;;;;5033227;28;20238;-59
2023/02/19 01:08:47;;;;;;;16.20;6.63;;;10.60;99.90;;;;;;5032312;28;20232;-59
2023/02/19 01:11:15;;;;;;;14.23;5.70;;;10.50;99.90;;;;;;5033491;28;20209;-59
2023/02/19 01:13:43;;;;;;;14.30;5.50;;;10.50;99.90;;;;;;5034658;28;20706;-60
2023/02/19 01:16:19;;;;;;;14.57;5.93;;;10.60;99.90;;;;;;5033748;28;20244;-59
2023/02/19 01:18:46;;;;;;;19.63;5.63;;;10.60;99.90;;;;;;5031774;28;20260;-59
2023/02/19 01:21:16;;;;;;;21.13;5.30;;;10.50;99.90;;;;;;5031140;28;20611;-60
2023/02/19 01:23:44;;;;;;;19.07;5.80;;;10.50;99.90;;;;;;5033820;28;20222;-62
2023/02/19 01:26:13;;;;;;;13.60;4.93;;;10.60;99.90;;;;;;5029000;28;20289;-60
2023/02/19 01:28:40;;;;;;;12.07;4.77;;;10.60;99.90;;;;;;5034176;28;20210;-60
2023/02/19 01:31:12;;;;;;;16.83;5.20;;;10.60;99.90;;;;;;5032859;28;20307;-61
2023/02/19 01:33:43;;;;;;;15.33;5.40;;;10.50;99.90;;;;;;5027845;28;20642;-61
2023/02/19 01:36:10;;;;;;;14.97;4.77;;;10.50;99.90;;;;;;5027147;28;20342;-59
2023/02/19 01:38:37;;;;;;;15.03;6.17;;;10.40;99.90;;;;;;5034990;28;20243;-60
2023/02/19 01:41:06;;;;;;;13.83;4.33;;;10.50;99.90;;;;;;5030620;28;20217;-61
2023/02/19 01:43:53;;;;;;;15.27;4.87;;;10.50;99.90;;;;;;5026264;28;20207;-60
2023/02/19 01:46:20;;;;;;;10.33;4.27;;;10.50;99.90;;;;;;5032450;28;20243;-60
2023/02/19 01:48:47;;;;;;;16.77;4.57;;;10.50;99.90;;;;;;5032818;28;20198;-60
2023/02/19 01:51:17;;;;;;;14.90;5.10;;;10.40;99.90;;;;;;5030888;28;20649;-60
2023/02/19 01:53:52;;;;;;;12.20;5.07;;;10.40;99.90;;;;;;5035170;28;20196;-59
2023/02/19 01:56:21;;;;;;;21.17;4.60;;;10.40;99.90;;;;;;5037881;28;20686;-59
2023/02/19 01:58:48;;;;;;;15.73;4.93;;;10.40;99.90;;;;;;5037025;28;20246;-60
2023/02/19 02:01:14;;;;;;;15.43;4.87;;;10.40;99.90;;;;;;5037383;28;20204;-60
2023/02/19 02:03:46;;;;;;;18.40;4.70;;;10.40;99.90;;;;;;5036562;28;20246;-60
2023/02/19 02:06:30;;;;;;;15.90;6.03;;;10.40;99.90;;;;;;5036628;28;20786;-60
2023/02/19 02:11:48;;;;;;;17.77;5.23;;;10.40;99.90;;;;;;5037721;28;20223;-60
2023/02/19 02:14:18;;;;;;;15.87;5.10;;;10.40;99.90;;;;;;5029683;28;20266;-60
2023/02/19 02:16:57;;;;;;;18.50;5.30;;;10.40;99.90;;;;;;5031458;28;20256;-59
2023/02/19 02:19:50;;;;;;;12.47;4.43;;;10.30;99.90;;;;;;5023349;28;20220;-60
2023/02/19 02:22:22;;;;;;;15.10;4.30;;;10.30;99.90;;;;;;5039980;28;20200;-62
2023/02/19 02:25:03;;;;;;;12.80;4.80;;;10.40;99.90;;;;;;5026622;28;20210;-64
2023/02/19 02:28:02;;;;;;;12.13;3.70;;;10.30;99.90;;;;;;5025142;28;20218;-60
2023/02/19 02:30:45;;;;;;;17.63;4.93;;;10.30;99.90;;;;;;5034417;28;20617;-60
2023/02/19 02:33:39;;;;;;;13.87;4.03;;;10.30;99.90;;;;;;5037540;28;20303;-61
2023/02/19 02:36:18;;;;;;;16.93;4.37;;;10.30;99.90;;;;;;5036241;28;20590;-60
2023/02/19 02:38:47;;;;;;;10.80;4.13;;;10.30;99.90;;;;;;5035333;28;20686;-61
2023/02/19 02:41:15;;;;;;;15.87;4.30;;;10.30;99.90;;;;;;5032068;28;20206;-60
2023/02/19 02:43:41;;;;;;;12.53;3.90;;;10.30;99.90;;;;;;5033641;28;20493;-59
2023/02/19 02:46:16;;;;;;;12.50;3.90;;;10.20;99.90;;;;;;5034914;28;20729;-60
2023/02/19 02:48:54;;;;;;;15.27;3.90;;;10.20;99.90;;;;;;5035649;28;20283;-59
2023/02/19 02:51:32;;;;;;;17.67;4.00;;;10.20;99.90;;;;;;5037325;28;20266;-61
2023/02/19 02:57:15;;;;;;;14.40;3.17;;;10.30;99.90;;;;;;5038116;28;20308;-61
2023/02/19 02:59:43;;;;;;;13.37;3.47;;;10.30;99.90;;;;;;5039693;28;20304;-61
2023/02/19 03:02:19;;;;;;;16.73;5.20;;;10.30;99.90;;;;;;5035550;28;20287;-61
2023/02/19 03:07:46;;;;;;;12.27;4.43;;;10.30;99.90;;;;;;5039514;28;20231;-62
2023/02/19 03:10:19;;;;;;;16.63;3.97;;;10.30;99.90;;;;;;5036694;28;20307;-60
2023/02/19 03:19:17;;;;;;;14.50;3.03;;;10.30;99.90;;;;;;5039023;28;20204;-60
2023/02/19 03:21:41;;;;;;;12.40;2.60;;;10.30;99.90;;;;;;5039411;28;20207;-59
2023/02/19 03:27:00;;;;;;;11.30;2.77;;;10.40;99.90;;;;;;5037783;28;20248;-61
2023/02/19 03:29:31;;;;;;;14.23;2.43;;;10.40;99.90;;;;;;5037030;28;20207;-59
2023/02/19 03:32:03;;;;;;;7.67;2.13;;;10.40;99.90;;;;;;5045852;28;20714;-64
2023/02/19 03:34:35;;;;;;;7.20;2.47;;;10.50;99.90;;;;;;5038798;28;20673;-60
2023/02/19 03:37:15;;;;;;;11.60;2.63;;;10.50;99.90;;;;;;5034287;28;20229;-59
2023/02/19 03:39:45;;;;;;;10.87;2.40;;;10.50;99.90;;;;;;5036142;28;20209;-60
2023/02/19 03:42:36;;;;;;;12.13;2.53;;;10.40;99.90;;;;;;5035166;28;20679;-63
2023/02/19 03:45:18;;;;;;;13.20;2.80;;;10.50;99.90;;;;;;5038649;28;20202;-59
2023/02/19 03:48:05;;;;;;;11.43;2.77;;;10.50;99.90;;;;;;5034508;28;20212;-62
2023/02/19 03:50:49;;;;;;;8.00;2.47;;;10.50;99.90;;;;;;5041298;28;20218;-60
2023/02/19 03:53:18;;;;;;;11.10;2.30;;;10.50;99.90;;;;;;5035037;28;20249;-60
2023/02/19 03:56:12;;;;;;;10.50;2.57;;;10.50;99.90;;;;;;5037771;28;20295;-61
2023/02/19 03:58:50;;;;;;;13.80;2.70;;;10.50;99.90;;;;;;5036019;28;20242;-59
2023/02/19 04:01:45;;;;;;;5.73;2.17;;;10.50;99.90;;;;;;5034940;28;20209;-60
2023/02/19 04:04:20;;;;;;;8.77;2.20;;;10.50;99.90;;;;;;5035391;28;20215;-60
2023/02/19 04:06:53;;;;;;;15.97;2.30;;;10.50;99.90;;;;;;5045169;28;20250;-61
2023/02/19 04:09:22;;;;;;;16.83;2.90;;;10.50;99.90;;;;;;5032921;28;20301;-60
2023/02/19 04:11:50;;;;;;;7.63;1.80;;;10.40;99.90;;;;;;5034663;28;20553;-60
2023/02/19 04:14:30;;;;;;;8.73;2.00;;;10.40;99.90;;;;;;5034703;28;20208;-61
2023/02/19 04:17:09;;;;;;;12.13;2.83;;;10.40;99.90;;;;;;5029460;28;20207;-63
2023/02/19 04:19:39;;;;;;;9.33;1.90;;;10.40;99.90;;;;;;5028315;28;20312;-63
2023/02/19 04:22:08;;;;;;;13.00;2.90;;;10.30;99.90;;;;;;5029531;28;20228;-62
2023/02/19 04:24:41;;;;;;;11.67;2.27;;;10.40;99.90;;;;;;5033281;28;20291;-63
2023/02/19 04:27:09;;;;;;;10.03;2.07;;;10.40;99.90;;;;;;5027745;28;20348;-63
2023/02/19 04:29:36;;;;;;;11.07;1.93;;;10.40;99.90;;;;;;5030491;28;20219;-63
2023/02/19 04:32:05;;;;;;;7.70;2.00;;;10.40;99.90;;;;;;5028938;28;20215;-63
2023/02/19 04:34:32;;;;;;;6.70;2.00;;;10.30;99.90;;;;;;5030463;28;20239;-63
2023/02/19 04:36:59;;;;;;;8.43;1.90;;;10.40;99.90;;;;;;5030275;28;20228;-63
2023/02/19 04:39:25;;;;;;;5.67;2.23;;;10.30;99.90;;;;;;5029227;28;20301;-63
2023/02/19 04:41:52;;;;;;;5.67;2.20;;;10.30;99.90;;;;;;5030497;28;20294;-66
2023/02/19 04:44:20;;;;;;;11.93;2.50;;;10.30;99.90;;;;;;5027676;28;20836;-63
2023/02/19 04:46:46;;;;;;;15.87;2.77;;;10.40;99.90;;;;;;5026648;28;20207;-62
2023/02/19 04:49:13;;;;;;;11.97;2.50;;;10.40;99.90;;;;;;5026213;28;20199;-63
2023/02/19 04:51:40;;;;;;;11.63;2.40;;;10.40;99.90;;;;;;5027562;28;20233;-63
2023/02/19 04:54:07;;;;;;;9.43;2.53;;;10.30;99.90;;;;;;5031390;28;20625;-63
2023/02/19 04:56:34;;;;;;;10.63;2.10;;;10.30;99.90;;;;;;5025601;28;20203;-63
2023/02/19 04:59:01;;;;;;;8.57;2.10;;;10.30;99.90;;;;;;5026076;28;20296;-63
2023/02/19 05:01:28;;;;;;;9.00;2.20;;;10.30;99.90;;;;;;5028455;28;20362;-62
2023/02/19 05:03:55;;;;;;;6.47;2.17;;;10.30;99.90;;;;;;5029301;28;20215;-63
2023/02/19 05:06:22;;;;;;;8.90;2.17;;;10.30;99.90;;;;;;5027354;28;20376;-63
2023/02/19 05:08:48;;;;;;;6.83;1.90;;;10.30;99.90;;;;;;5029605;28;20200;-64
2023/02/19 05:11:15;;;;;;;10.60;2.83;;;10.20;99.90;;;;;;5027391;28;20680;-64
2023/02/19 05:13:42;;;;;;;11.00;2.13;;;10.20;99.90;;;;;;5027278;28;20207;-64
2023/02/19 05:16:17;;;;;;;9.10;2.33;;;10.20;99.90;;;;;;5030090;28;20212;-63
2023/02/19 05:18:45;;;;;;;5.63;2.10;;;10.20;99.90;;;;;;5028759;28;20214;-63
2023/02/19 05:21:13;;;;;;;7.77;2.03;;;10.20;99.90;;;;;;5030946;28;20219;-64
2023/02/19 05:23:41;;;;;;;9.63;2.23;;;10.20;99.90;;;;;;5035023;28;20532;-63
2023/02/19 05:26:11;;;;;;;8.87;2.60;;;10.20;99.90;;;;;;5034060;28;20210;-63
2023/02/19 05:28:38;;;;;;;12.97;2.07;;;10.20;99.90;;;;;;5034252;28;20486;-64
2023/02/19 05:31:07;;;;;;;13.17;2.50;;;10.20;99.90;;;;;;5033029;28;20313;-63
2023/02/19 05:33:36;;;;;;;10.33;2.13;;;10.10;99.90;;;;;;5038293;28;20200;-63
2023/02/19 05:36:06;;;;;;;12.40;3.00;;;10.20;99.90;;;;;;5036258;28;20265;-63
2023/02/19 05:38:34;;;;;;;7.37;2.00;;;10.20;99.90;;;;;;5035010;28;20726;-63
2023/02/19 05:41:13;;;;;;;10.47;2.77;;;10.20;99.90;;;;;;5038245;28;20233;-63
2023/02/19 05:43:41;;;;;;;5.83;2.40;;;10.20;99.90;;;;;;5036694;28;20211;-63
2023/02/19 05:46:10;;;;;;;6.33;2.63;;;10.10;99.90;;;;;;5038672;28;20647;-63
2023/02/19 05:48:36;;;;;;;8.87;2.53;;;10.10;99.90;;;;;;5033218;28;20294;-63
2023/02/19 05:51:15;;;;;;;11.03;2.23;;;10.10;99.90;;;;;;5033116;28;20634;-63
2023/02/19 05:53:43;;;;;;;8.47;1.83;;;10.00;99.90;;;;;;5038605;28;20227;-63
2023/02/19 05:56:24;;;;;;;7.77;2.37;;;10.00;99.90;;;;;;5033223;28;20220;-63
2023/02/19 05:58:54;;;;;;;13.83;3.00;;;9.90;99.90;;;;;;5032226;28;20220;-63
2023/02/19 06:01:24;;;;;;;11.37;2.40;;;10.00;99.90;;;;;;5035018;28;20274;-63
2023/02/19 06:03:51;;;;;;;10.70;3.17;;;9.90;99.90;;;;;;5034519;28;20620;-63
2023/02/19 06:06:20;;;;;;;9.80;2.23;;;10.00;99.90;;;;;;5035233;28;20207;-63
2023/02/19 06:08:49;;;;;;;8.27;2.43;;;10.00;99.90;;;;;;5033136;28;20222;-63
2023/02/19 06:11:16;;;;;;;12.20;2.77;;;10.00;99.90;;;;;;5036569;28;20667;-63
2023/02/19 06:13:44;;;;;;;10.70;2.77;;;10.00;99.90;;;;;;5036926;28;20291;-63
2023/02/19 06:16:11;;;;;;;14.27;2.60;;;10.00;99.90;;;;;;5032649;28;20210;-63
2023/02/19 06:18:41;;;;;;;7.73;2.03;;;10.00;99.90;;;;;;5035548;28;20513;-63
2023/02/19 06:21:10;;;;;;;6.57;2.30;;;10.00;99.90;;;;;;5036499;28;20319;-63
2023/02/19 06:23:38;;;;;;;10.80;2.63;;;10.00;99.90;;;;;;5036095;28;20193;-63
2023/02/19 06:26:18;;;;;;;9.53;2.70;;;10.00;99.90;;;;;;5033450;28;20196;-64
2023/02/19 06:28:46;;;;;;;12.00;3.03;;;10.10;99.90;;;;;;5036052;28;20211;-63
2023/02/19 06:31:14;;;;;;;9.00;2.77;;;10.10;99.90;;;;;;5036854;28;20290;-63
2023/02/19 06:33:41;;;;;;;15.03;2.33;;;10.00;99.90;;;;;;5033237;28;20208;-63
2023/02/19 06:36:15;;;;;;;8.67;2.40;;;10.10;99.90;;;;;;5035000;28;20237;-63
2023/02/19 06:38:42;;;;;;;9.53;2.60;;;10.00;99.90;;;;;;5036270;28;20658;-63
2023/02/19 06:41:11;;;;;;;11.23;3.00;;;10.00;99.90;;;;;;5040516;28;20251;-64
2023/02/19 06:43:38;;;;;;;8.97;3.00;;;10.00;99.90;;;;;;5036981;28;20203;-64
2023/02/19 06:46:06;;;;;;;7.80;3.00;;;10.00;99.90;;;;;;5031670;28;20212;-63
2023/02/19 06:48:34;;;;;;;9.07;2.67;;;10.00;99.90;;;;;;4668186;28;10000552;-63
2023/02/19 06:51:01;;;;;;;7.93;2.73;;;10.00;99.90;;;;;;5027525;28;20204;-63
2023/02/19 06:53:28;;;;;;;7.93;2.70;;;10.00;99.90;;;;;;5034061;28;20424;-63
2023/02/19 06:55:56;;;;;;;10.90;2.90;;;9.90;99.90;;;;;;5032958;28;20578;-63
2023/02/19 06:58:23;;;;;;;10.93;2.97;;;10.00;99.90;;;;;;5033132;28;20204;-63
2023/02/19 07:00:50;;;;;;;10.67;3.53;;;9.80;99.90;;;;;;5026989;28;20242;-63
2023/02/19 07:03:17;;;;;;;10.67;3.43;;;9.90;99.90;;;;;;5031169;28;20200;-63
2023/02/19 07:05:43;;;;;;;11.27;3.50;;;9.90;99.90;;;;;;5029105;28;20231;-63
2023/02/19 07:08:10;;;;;;;9.53;3.87;;;9.90;99.90;;;;;;5029435;28;20208;-63
2023/02/19 07:10:37;;;;;;;9.90;4.13;;;9.70;99.90;;;;;;5032447;28;20222;-63
2023/02/19 07:13:04;;;;;;;9.60;3.80;;;9.80;99.90;;;;;;5032082;28;20202;-63
2023/02/19 07:15:31;;;;;;;8.20;3.80;;;9.80;99.90;;;;;;5034460;28;20291;-63
2023/02/19 07:17:58;;;;;;;9.60;4.20;;;9.90;99.90;;;;;;5029656;28;20208;-63
2023/02/19 07:20:25;;;;;;;7.70;4.50;;;9.90;99.90;;;;;;5032222;28;20215;-63
2023/02/19 07:22:52;;;;;;;10.13;4.23;;;9.90;99.90;;;;;;5033955;28;20569;-63
2023/02/19 07:25:19;;;;;;;8.13;4.47;;;9.80;99.90;;;;;;5037452;28;20649;-63
2023/02/19 07:27:45;;;;;;;6.97;3.97;;;9.80;99.90;;;;;;5036093;28;20203;-63
2023/02/19 07:30:12;;;;;;;14.57;4.67;;;9.90;99.90;;;;;;5032565;28;20196;-63
2023/02/19 07:32:44;;;;;;;10.97;4.80;;;9.90;99.90;;;;;;5035156;28;20280;-63
2023/02/19 07:35:11;;;;;;;9.73;4.73;;;9.70;99.90;;;;;;5038032;28;20207;-63
2023/02/19 07:37:39;;;;;;;14.30;5.30;;;9.80;99.90;;;;;;5034570;28;20227;-63
2023/02/19 07:40:06;;;;;;;12.33;5.03;;;9.90;99.90;;;;;;5039947;28;20220;-63
2023/02/19 07:42:33;;;;;;;10.13;5.17;;;9.80;99.90;;;;;;5040256;28;20239;-63
2023/02/19 07:45:00;;;;;;;9.73;5.47;;;9.70;99.90;;;;;;5037147;28;20214;-63
2023/02/19 07:47:28;;;;;;;13.70;5.40;;;9.70;99.90;;;;;;5037842;28;20235;-63
2023/02/19 07:49:55;;;;;;;10.40;5.43;;;9.80;99.90;;;;;;5035146;28;20264;-63
2023/02/19 07:52:22;;;;;;;11.53;5.73;;;9.90;99.90;;;;;;5038101;28;20243;-63
2023/02/19 07:54:49;;;;;;;13.00;6.03;;;9.80;99.90;;;;;;5037747;28;20207;-63
2023/02/19 07:57:15;;;;;;;8.83;5.77;;;9.80;99.90;;;;;;5036976;28;20288;-63
2023/02/19 07:59:42;;;;;;;14.50;6.23;;;9.90;99.90;;;;;;5036938;28;20222;-63
2023/02/19 08:05:03;;;;;;;11.67;6.27;;;9.90;99.90;;;;;;5033219;28;20980;-63
2023/02/19 08:07:33;;;;;;;9.70;6.47;;;9.90;99.90;;;;;;5033632;28;20313;-63
2023/02/19 08:15:42;;;;;;;11.73;6.30;;;9.90;99.90;;;;;;5030049;28;20220;-62
2023/02/19 08:18:10;;;;;;;10.70;7.00;;;10.00;99.90;;;;;;5028016;28;20205;-62
2023/02/19 08:20:37;;;;;;;18.93;6.77;;;10.00;99.90;;;;;;5033225;28;20217;-62
2023/02/19 08:23:05;;;;;;;10.97;6.40;;;10.10;99.90;;;;;;5032597;28;20287;-62
2023/02/19 08:25:32;;;;;;;9.47;6.53;;;10.10;99.90;;;;;;5035228;28;20200;-62
2023/02/19 08:27:59;;;;;;;10.37;6.50;;;9.90;99.90;;;;;;5041213;28;20703;-62
2023/02/19 08:30:27;;;;;;;11.17;6.90;;;10.00;99.90;;;;;;5038349;28;20210;-63
2023/02/19 08:32:54;;;;;;;9.73;6.60;;;10.00;99.90;;;;;;5035113;28;20212;-63
2023/02/19 08:35:21;;;;;;;18.17;6.50;;;10.00;99.90;;;;;;5035931;28;20295;-62
2023/02/19 08:37:48;;;;;;;10.03;6.30;;;10.00;99.90;;;;;;5034195;28;20701;-63
2023/02/19 08:40:15;;;;;;;8.47;5.80;;;9.90;99.90;;;;;;5037560;28;20669;-63
2023/02/19 08:42:42;;;;;;;8.83;5.90;;;9.80;99.90;;;;;;5030762;28;20195;-63
2023/02/19 08:45:09;;;;;;;13.80;6.10;;;9.90;99.90;;;;;;5031966;28;20642;-63
2023/02/19 08:47:37;;;;;;;11.77;5.60;;;9.90;99.90;;;;;;5033615;28;20210;-62
2023/02/19 08:50:05;;;;;;;10.60;5.10;;;10.00;99.90;;;;;;5034799;28;20206;-63
2023/02/19 08:52:33;;;;;;;9.10;5.27;;;9.80;99.90;;;;;;5027697;28;20773;-62
2023/02/19 08:55:00;;;;;;;8.90;4.70;;;9.90;99.90;;;;;;5035024;28;20309;-63
2023/02/19 08:57:28;;;;;;;7.63;4.47;;;9.80;99.90;;;;;;5033353;28;20254;-63
2023/02/19 08:59:56;;;;;;;8.57;4.30;;;9.80;99.90;;;;;;5036899;28;20204;-62
2023/02/19 09:02:23;;;;;;;7.83;4.07;;;10.00;99.90;;;;;;5017884;28;20247;-63
2023/02/19 09:04:50;;;;;;;7.97;4.13;;;9.90;99.90;;;;;;5014465;28;20209;-63
2023/02/19 09:07:18;;;;;;;8.10;3.87;;;10.00;99.90;;;;;;5018363;28;20565;-63
2023/02/19 09:09:44;;;;;;;5.63;3.30;;;10.00;99.90;;;;;;5023390;28;20203;-63
2023/02/19 09:12:11;;;;;;;7.83;3.50;;;10.00;99.90;;;;;;5022854;28;20686;-63
2023/02/19 09:14:39;;;;;;;9.63;3.80;;;10.00;99.90;;;;;;5030342;28;20294;-62
2023/02/19 09:17:07;;;;;;;8.13;3.70;;;9.90;99.90;;;;;;5032370;28;20879;-62
2023/02/19 09:19:35;;;;;;;7.30;3.70;;;10.00;99.90;;;;;;5033055;28;20640;-64
2023/02/19 09:22:03;;;;;;;4.87;3.33;;;10.00;99.90;;;;;;5034490;28;20672;-63
2023/02/19 09:24:30;;;;;;;8.20;4.30;;;10.00;99.90;;;;;;5033446;28;20227;-62
2023/02/19 09:26:57;;;;;;;10.73;3.33;;;10.00;99.90;;;;;;5030197;28;20257;-63
2023/02/19 09:29:25;;;;;;;8.77;3.90;;;10.10;99.90;;;;;;5031673;28;20325;-63
2023/02/19 09:31:56;;;;;;;5.47;3.40;;;10.10;99.90;;;;;;5034692;28;20619;-62
2023/02/19 09:34:25;;;;;;;6.20;3.70;;;10.10;99.90;;;;;;5035048;28;20333;-62
2023/02/19 09:36:52;;;;;;;8.33;3.50;;;10.20;99.90;;;;;;5035735;28;20242;-63
2023/02/19 09:39:19;;;;;;;8.47;3.30;;;10.40;99.90;;;;;;5036148;28;20568;-63
2023/02/19 09:41:56;;;;;;;5.60;3.30;;;10.40;99.90;;;;;;5035478;28;20303;-62
2023/02/19 09:44:32;;;;;;;11.67;4.10;;;10.60;99.90;;;;;;5030815;28;20283;-63
2023/02/19 09:47:02;;;;;;;9.50;3.20;;;10.90;99.90;;;;;;5039394;28;20203;-63
2023/02/19 09:49:36;;;;;;;4.53;2.80;;;10.70;99.90;;;;;;5032934;28;20211;-63
2023/02/19 09:52:11;;;;;;;6.97;3.03;;;10.80;99.90;;;;;;5036900;28;20656;-63
2023/02/19 09:54:39;;;;;;;4.10;2.50;;;10.70;99.90;;;;;;5034316;28;20230;-63
2023/02/19 09:57:14;;;;;;;5.87;2.73;;;10.70;99.90;;;;;;5035082;28;20209;-63
2023/02/19 10:00:10;;;;;;;5.20;2.60;;;10.50;99.90;;;;;;5032815;28;20456;-63
2023/02/19 10:02:37;;;;;;;4.40;2.40;;;10.60;99.90;;;;;;5017651;28;20660;-64
2023/02/19 10:05:14;;;;;;;9.03;3.13;;;10.60;99.90;;;;;;5031044;28;20222;-63
2023/02/19 10:07:46;;;;;;;8.03;3.23;;;10.70;99.90;;;;;;5030950;28;20620;-65
2023/02/19 10:10:13;;;;;;;11.23;4.00;;;10.70;99.90;;;;;;5038145;28;20206;-62
2023/02/19 10:12:46;;;;;;;7.13;3.10;;;10.70;99.90;;;;;;5034162;28;20222;-62
2023/02/19 10:15:37;;;;;;;5.00;2.80;;;10.60;99.90;;;;;;5035190;28;20213;-62
2023/02/19 10:18:06;;;;;;;6.27;3.10;;;10.60;99.90;;;;;;5038794;28;20635;-62
2023/02/19 10:20:36;;;;;;;9.43;2.90;;;10.60;99.90;;;;;;5040149;28;20796;-62
2023/02/19 10:23:06;;;;;;;15.53;3.50;;;10.70;99.90;;;;;;5041756;28;20683;-62
2023/02/19 10:25:34;;;;;;;10.70;3.33;;;10.90;99.90;;;;;;5041913;28;20211;-62
2023/02/19 10:28:02;;;;;;;8.43;3.10;;;10.80;99.90;;;;;;5037264;28;20715;-63
2023/02/19 10:30:34;;;;;;;7.37;3.33;;;10.90;99.90;;;;;;5039244;28;20196;-63
2023/02/19 10:33:13;;;;;;;8.53;3.13;;;11.00;99.90;;;;;;5040078;28;20212;-62
2023/02/19 10:35:54;;;;;;;5.43;3.20;;;10.80;99.90;;;;;;5033861;28;20211;-63
2023/02/19 10:38:43;;;;;;;10.10;3.60;;;10.80;99.90;;;;;;5037854;28;20679;-63
2023/02/19 10:41:17;;;;;;;10.40;4.13;;;10.80;99.90;;;;;;5041869;28;20220;-62
2023/02/19 10:44:05;;;;;;;7.13;4.03;;;10.80;99.90;;;;;;5038653;28;20193;-63
2023/02/19 10:46:39;;;;;;;7.80;3.30;;;10.80;99.90;;;;;;5038353;28;20251;-66
2023/02/19 10:49:36;;;;;;;8.47;3.00;;;10.80;99.90;;;;;;5033969;28;20281;-62
2023/02/19 10:52:20;;;;;;;8.33;2.83;;;10.90;99.90;;;;;;5039877;28;20321;-62
2023/02/19 10:55:13;;;;;;;6.07;3.00;;;11.10;99.90;;;;;;5040784;28;20247;-62
2023/02/19 10:57:40;;;;;;;4.60;2.97;;;11.20;99.90;;;;;;5039791;28;20258;-63
2023/02/19 11:00:21;;;;;;;8.00;3.53;;;11.40;99.90;;;;;;5035065;28;20215;-63
2023/02/19 11:02:48;;;;;;;4.43;3.23;;;11.40;99.90;;;;;;5039390;28;20692;-63
2023/02/19 11:05:18;;;;;;;3.00;2.43;;;11.70;99.90;;;;;;5037870;28;20633;-63
2023/02/19 11:07:54;;;;;;;5.80;3.23;;;11.70;99.90;;;;;;5033801;28;20196;-66
2023/02/19 11:10:35;;;;;;;7.30;2.80;;;11.40;99.90;;;;;;5039552;28;20204;-62
2023/02/19 11:13:03;;;;;;;4.73;2.17;;;11.30;99.90;;;;;;5037829;28;20222;-63
2023/02/19 11:15:32;;;;;;;7.87;2.97;;;11.20;99.90;;;;;;5031190;28;20200;-63
2023/02/19 11:18:12;;;;;;;5.40;2.90;;;11.20;99.90;;;;;;5036762;28;20327;-63
2023/02/19 11:20:59;;;;;;;5.57;2.47;;;11.20;99.90;;;;;;5032113;28;20652;-63
2023/02/19 11:23:31;;;;;;;4.27;2.27;;;11.20;99.90;;;;;;5031820;28;20326;-63
2023/02/19 11:26:05;;;;;;;2.83;2.13;;;11.30;99.90;;;;;;5032695;28;20295;-63
2023/02/19 11:28:35;;;;;;;4.20;2.20;;;11.30;99.90;;;;;;5034275;28;20291;-62
2023/02/19 11:31:33;;;;;;;3.50;2.40;;;11.20;99.90;;;;;;5035453;28;20204;-63
2023/02/19 11:34:28;;;;;;;6.10;2.83;;;11.10;99.90;;;;;;5024800;28;20684;-63
2023/02/19 11:37:12;;;;;;;7.03;2.10;;;11.10;99.90;;;;;;5030948;28;20248;-62
2023/02/19 11:39:42;;;;;;;5.80;2.73;;;11.00;99.90;;;;;;5027834;28;20235;-65
2023/02/19 11:42:57;;;;;;;3.63;2.27;;;11.00;99.90;;;;;;5029847;28;20680;-63
2023/02/19 11:45:41;;;;;;;5.20;2.03;;;10.90;99.90;;;;;;5029181;28;20831;-62
2023/02/19 11:48:14;;;;;;;2.77;2.23;;;11.00;99.90;;;;;;5031028;28;20563;-62
2023/02/19 11:50:55;;;;;;;7.33;2.70;;;10.80;99.90;;;;;;5035652;28;20290;-62
2023/02/19 11:53:36;;;;;;;3.27;2.30;;;10.80;99.90;;;;;;5038063;28;20258;-62
2023/02/19 11:56:17;;;;;;;3.80;2.40;;;10.80;99.90;;;;;;5033428;28;20555;-62
2023/02/19 11:59:09;;;;;;;5.17;2.50;;;10.80;99.90;;;;;;5032343;28;20202;-62
2023/02/19 12:02:14;;;;;;;3.60;2.30;;;10.80;99.90;;;;;;5041184;28;20785;-63
2023/02/19 12:04:47;;;;;;;6.30;2.70;;;10.90;99.90;;;;;;5029582;28;20575;-62
2023/02/19 12:07:52;;;;;;;4.30;2.30;;;10.80;99.90;;;;;;5029288;28;20668;-63
2023/02/19 12:10:46;;;;;;;4.63;3.23;;;10.80;99.90;;;;;;5033261;28;20685;-62
2023/02/19 12:13:56;;;;;;;3.60;3.23;;;11.00;99.90;;;;;;5038099;28;20678;-62
2023/02/19 12:16:46;;;;;;;3.60;3.07;;;11.70;99.90;;;;;;4996051;28;20213;-63
2023/02/19 12:19:28;;;;;;;4.87;2.93;;;11.80;99.90;;;;;;5034181;28;20209;-62
2023/02/19 12:22:32;;;;;;;6.93;3.43;;;11.50;99.90;;;;;;5024623;28;20230;-63
2023/02/19 12:25:22;;;;;;;2.37;2.10;;;11.30;99.90;;;;;;5028941;28;20223;-63
2023/02/19 12:28:15;;;;;;;1.80;1.60;;;11.10;99.90;;;;;;5027422;28;20205;-63
2023/02/19 12:31:07;;;;;;;1.53;1.20;;;11.20;99.90;;;;;;5041744;28;20562;-62
2023/02/19 12:34:05;;;;;;;0.67;0.67;;;11.30;99.90;;;;;;5032066;28;20714;-63
2023/02/19 12:36:57;;;;;;;0.70;0.70;;;11.10;99.90;;;;;;5032712;28;20398;-62
2023/02/19 12:39:32;;;;;;;0.90;0.70;;;10.70;99.90;;;;;;5034529;28;20240;-63
2023/02/19 12:42:21;;;;;;;1.63;0.73;;;10.50;99.90;;;;;;5025298;28;20306;-63
2023/02/19 12:44:56;;;;;;;1.27;0.90;;;10.60;99.90;;;;;;5023125;28;20289;-62
2023/02/19 12:47:28;;;;;;;3.37;1.10;;;10.50;99.90;;;;;;5027564;28;21426;-63
2023/02/19 12:50:12;;;;;;;3.50;1.40;;;10.50;99.90;;;;;;5023407;28;20223;-62
2023/02/19 12:52:41;;;;;;;1.33;0.90;;;10.60;99.90;;;;;;5031282;28;20264;-62
2023/02/19 12:55:28;;;;;;;0.80;0.80;;;10.50;99.90;;;;;;5038207;28;20208;-62
2023/02/19 12:58:00;;;;;;;2.20;0.93;;;10.50;99.90;;;;;;5034806;28;20677;-62
2023/02/19 13:00:51;;;;;;;2.10;0.90;;;10.60;99.90;;;;;;5037313;28;20250;-62
2023/02/19 13:03:31;;;;;;;2.00;0.90;;;10.40;99.90;;;;;;5032967;28;20208;-63
2023/02/19 13:06:05;;;;;;;2.03;1.20;;;10.40;99.90;;;;;;5032345;28;20874;-63
2023/02/19 13:08:47;;;;;;;2.83;0.90;;;10.40;99.90;;;;;;5033606;28;20192;-62
2023/02/19 13:12:12;;;;;;;3.27;0.83;;;10.30;99.90;;;;;;5036011;28;20219;-62
2023/02/19 13:14:44;;;;;;;4.17;1.10;;;10.20;99.90;;;;;;5005265;28;20295;-62
2023/02/19 13:17:28;;;;;;;1.20;0.73;;;10.20;99.90;;;;;;5003274;28;20311;-62
2023/02/19 13:20:12;;;;;;;1.23;0.83;;;10.10;99.90;;;;;;5000981;28;20300;-62
2023/02/19 13:26:01;;;;;;;5.47;2.37;;;10.00;99.90;;;;;;5003652;28;20209;-63
2023/02/19 13:28:48;;;;;;;3.93;2.47;;;9.90;99.90;;;;;;4961784;28;20311;-63
2023/02/19 13:31:31;;;;;;;5.87;2.60;;;10.00;99.90;;;;;;5004051;28;20216;-62
2023/02/19 13:34:26;;;;;;;4.17;3.20;;;10.00;99.90;;;;;;5002974;28;20219;-63
2023/02/19 13:36:54;;;;;;;6.10;2.90;;;10.00;99.90;;;;;;5003968;28;20232;-63
2023/02/19 13:39:21;;;;;;;2.33;1.90;;;10.00;99.90;;;;;;5003734;28;20251;-63
2023/02/19 13:41:56;;;;;;;4.10;1.47;;;9.90;99.90;;;;;;5002613;28;20826;-63
2023/02/19 13:44:26;;;;;;;4.80;1.40;;;10.00;99.90;;;;;;5004830;28;20211;-62